Time;durP1;ratioP1;P1;durP2;ratioP2;P2;SDS_P1;SDS_P2;PMS_P1;PMS_P2;Temp;Humidity;BMP_temperature;BMP_pressure;BME280_temperature;BME280_humidity;BME280_pressure;Samples;Min_cycle;Max_cycle;Signal;HPM_P1;HPM_P2
2023/06/17 00:01:51;;;;;;;5.80;3.38;;;18.30;99.90;;;;;;12416017;28;20038;-36
2023/06/17 00:07:53;;;;;;;10.80;4.22;;;18.30;99.90;;;;;;12416767;28;20506;-36
2023/06/17 00:13:56;;;;;;;7.35;4.00;;;18.30;99.90;;;;;;12412467;28;20046;-35
2023/06/17 00:20:12;;;;;;;9.45;3.85;;;18.30;99.90;;;;;;12415915;28;20046;-36
2023/06/17 00:26:14;;;;;;;7.25;3.75;;;18.40;99.90;;;;;;12416646;28;20049;-35
2023/06/17 00:32:16;;;;;;;4.63;3.55;;;18.30;99.90;;;;;;12408975;28;20045;-35
2023/06/17 00:38:18;;;;;;;6.00;3.88;;;17.90;99.90;;;;;;12425089;28;20385;-35
2023/06/17 00:44:20;;;;;;;6.95;3.80;;;17.50;99.90;;;;;;12412265;28;20046;-35
2023/06/17 00:50:22;;;;;;;6.82;4.00;;;17.20;99.90;;;;;;12413352;28;20050;-36
2023/06/17 00:56:26;;;;;;;5.43;3.72;;;17.10;99.90;;;;;;12386625;28;20046;-35
2023/06/17 01:02:28;;;;;;;7.10;4.15;;;17.10;99.90;;;;;;12414746;28;20045;-35
2023/06/17 01:08:44;;;;;;;7.05;4.22;;;17.20;99.90;;;;;;12427272;28;20137;-36
2023/06/17 01:14:49;;;;;;;7.25;4.38;;;17.20;99.90;;;;;;12405790;28;20050;-35
2023/06/17 01:20:53;;;;;;;5.82;4.30;;;17.10;99.90;;;;;;12413628;28;20061;-35
2023/06/17 01:26:57;;;;;;;6.93;4.75;;;17.00;99.90;;;;;;12422430;28;20514;-35
2023/06/17 01:33:00;;;;;;;7.13;4.32;;;16.80;99.90;;;;;;12430046;28;20107;-35
2023/06/17 01:39:03;;;;;;;9.60;5.07;;;16.70;99.90;;;;;;12398847;28;20050;-35
2023/06/17 01:45:06;;;;;;;7.20;4.80;;;16.70;99.90;;;;;;12403820;28;20046;-35
2023/06/17 01:51:08;;;;;;;6.83;4.73;;;16.70;99.90;;;;;;12423850;28;20054;-35
2023/06/17 01:57:11;;;;;;;6.00;4.60;;;16.80;99.90;;;;;;12420158;28;20046;-36
2023/06/17 02:03:15;;;;;;;6.82;4.55;;;16.80;99.90;;;;;;12401900;28;20415;-36
2023/06/17 02:09:18;;;;;;;10.82;4.75;;;16.80;99.90;;;;;;12407691;28;20045;-35
2023/06/17 02:15:20;;;;;;;5.75;4.63;;;16.70;99.90;;;;;;12418473;28;20051;-35
2023/06/17 02:21:22;;;;;;;5.75;4.60;;;16.60;99.90;;;;;;12423620;28;20145;-35
2023/06/17 02:27:24;;;;;;;9.43;5.32;;;16.60;99.90;;;;;;12403512;28;20406;-35
2023/06/17 02:33:27;;;;;;;10.90;5.07;;;16.70;99.90;;;;;;12391418;28;20061;-35
2023/06/17 02:39:30;;;;;;;8.23;5.00;;;16.70;99.90;;;;;;12422359;28;20042;-35
2023/06/17 02:45:32;;;;;;;9.05;4.90;;;16.70;99.90;;;;;;12408342;28;20046;-36
2023/06/17 02:51:34;;;;;;;7.03;5.07;;;16.70;99.90;;;;;;12406900;28;20486;-35
2023/06/17 02:57:36;;;;;;;10.75;5.85;;;16.60;99.90;;;;;;12420323;28;20078;-35
2023/06/17 03:03:41;;;;;;;8.63;5.30;;;16.30;99.90;;;;;;12422723;28;20427;-36
2023/06/17 03:09:43;;;;;;;9.80;5.45;;;16.40;99.90;;;;;;12421290;28;20088;-36
2023/06/17 03:15:45;;;;;;;6.57;5.10;;;16.50;99.90;;;;;;12428221;28;20046;-35
2023/06/17 03:21:49;;;;;;;9.38;5.05;;;16.70;99.90;;;;;;12413043;28;20054;-36
2023/06/17 03:27:52;;;;;;;;;;;16.70;99.90;;;;;;12407161;28;20502;-35
2023/06/17 03:33:54;;;;;;;6.00;4.93;;;16.80;99.90;;;;;;12404033;28;19925;-35
2023/06/17 03:39:56;;;;;;;6.53;5.00;;;16.80;99.90;;;;;;12413385;28;20073;-35
2023/06/17 03:45:58;;;;;;;7.88;5.05;;;16.70;99.90;;;;;;12395924;28;20053;-35
2023/06/17 03:52:00;;;;;;;8.30;5.88;;;16.60;99.90;;;;;;12407267;28;20049;-36
2023/06/17 03:58:02;;;;;;;10.10;6.20;;;16.50;99.90;;;;;;12394438;28;20054;-36
2023/06/17 04:04:04;;;;;;;10.75;5.80;;;16.40;99.90;;;;;;12402706;28;20076;-36
2023/06/17 04:10:08;;;;;;;6.80;5.20;;;16.20;99.90;;;;;;12405721;28;20058;-35
2023/06/17 04:16:11;;;;;;;6.60;4.63;;;16.40;99.90;;;;;;12367873;28;20088;-36
2023/06/17 04:22:13;;;;;;;9.05;5.88;;;16.90;99.90;;;;;;12398749;28;20046;-35
2023/06/17 04:28:17;;;;;;;6.82;5.47;;;17.30;99.90;;;;;;12414709;28;20058;-36
2023/06/17 04:34:22;;;;;;;6.50;4.57;;;17.60;99.90;;;;;;12416643;28;20046;-36
2023/06/17 04:40:25;;;;;;;7.68;5.57;;;18.60;99.90;;;;;;12423292;28;21248;-36
2023/06/17 04:46:27;;;;;;;6.53;5.25;;;19.00;99.90;;;;;;12413434;28;20151;-35
2023/06/17 04:52:31;;;;;;;6.35;4.90;;;19.40;99.90;;;;;;12405405;28;20423;-35
2023/06/17 04:58:33;;;;;;;10.20;6.00;;;18.80;99.90;;;;;;12388967;28;20052;-35
2023/06/17 05:04:35;;;;;;;11.05;6.15;;;18.10;99.90;;;;;;12413740;28;20057;-36
2023/06/17 05:10:37;;;;;;;8.30;5.38;;;17.80;99.90;;;;;;12411651;28;20046;-36
2023/06/17 05:16:39;;;;;;;8.98;5.70;;;17.60;99.90;;;;;;12417400;28;20050;-35
2023/06/17 05:22:41;;;;;;;9.95;6.07;;;17.30;99.90;;;;;;12409486;28;20506;-36
2023/06/17 05:28:44;;;;;;;7.32;5.70;;;17.30;99.90;;;;;;12390818;28;20058;-36
2023/06/17 05:34:46;;;;;;;10.88;6.40;;;17.30;99.90;;;;;;12411139;28;20043;-36
2023/06/17 05:40:48;;;;;;;11.13;7.07;;;17.30;99.90;;;;;;12397638;28;20046;-36
2023/06/17 05:46:50;;;;;;;11.50;5.93;;;17.20;99.90;;;;;;12408752;28;20049;-36
2023/06/17 05:52:52;;;;;;;16.83;6.88;;;16.90;99.90;;;;;;12407683;28;20050;-36
2023/06/17 05:58:54;;;;;;;12.82;6.97;;;16.80;99.90;;;;;;12399811;28;20061;-36
2023/06/17 06:04:56;;;;;;;10.25;7.10;;;16.80;99.90;;;;;;12400909;28;20046;-36
2023/06/17 06:10:59;;;;;;;11.55;7.15;;;16.80;99.90;;;;;;12400816;28;20053;-36
2023/06/17 06:17:01;;;;;;;12.20;6.70;;;16.90;99.90;;;;;;12401608;28;20050;-36
2023/06/17 06:23:03;;;;;;;12.43;7.43;;;17.10;99.90;;;;;;12401807;28;20042;-36
2023/06/17 06:29:07;;;;;;;13.82;7.93;;;17.30;99.90;;;;;;12393924;28;20141;-36
2023/06/17 06:35:09;;;;;;;11.77;7.75;;;16.90;99.90;;;;;;12416902;28;20054;-36
2023/06/17 06:41:11;;;;;;;14.38;7.97;;;16.80;99.90;;;;;;12420112;28;20053;-36
2023/06/17 06:47:13;;;;;;;13.32;8.50;;;17.10;99.90;;;;;;12427105;28;20092;-36
2023/06/17 06:53:15;;;;;;;8.50;7.07;;;17.10;99.90;;;;;;12401248;28;21582;-36
2023/06/17 06:59:17;;;;;;;11.10;8.20;;;17.40;99.90;;;;;;12408613;28;20047;-36
2023/06/17 07:05:21;;;;;;;14.82;7.78;;;17.90;99.90;;;;;;12404753;28;20054;-36
2023/06/17 07:11:23;;;;;;;15.90;8.70;;;18.00;99.90;;;;;;12412522;28;20038;-37
2023/06/17 07:17:25;;;;;;;9.20;7.18;;;18.00;99.90;;;;;;12416955;28;20490;-36
2023/06/17 07:23:27;;;;;;;11.18;7.15;;;18.20;99.90;;;;;;12410670;28;20042;-37
2023/06/17 07:29:30;;;;;;;12.18;8.43;;;18.40;99.90;;;;;;12433826;28;20057;-36
2023/06/17 07:35:32;;;;;;;9.80;7.37;;;18.40;99.90;;;;;;12418138;28;20133;-36
2023/06/17 07:41:34;;;;;;;11.25;7.70;;;18.40;99.90;;;;;;12415646;28;20042;-36
2023/06/17 07:47:37;;;;;;;11.32;8.13;;;18.70;99.90;;;;;;12407437;28;20418;-37
2023/06/17 07:53:39;;;;;;;10.82;7.75;;;18.70;99.90;;;;;;12418373;28;20519;-37
2023/06/17 07:59:42;;;;;;;10.48;7.38;;;19.00;99.90;;;;;;12410620;28;20047;-36
2023/06/17 08:05:44;;;;;;;11.90;8.30;;;18.80;99.90;;;;;;12425555;28;20410;-37
2023/06/17 08:11:47;;;;;;;8.77;6.65;;;18.90;99.90;;;;;;12398829;28;20062;-37
2023/06/17 08:17:50;;;;;;;12.95;8.45;;;19.10;99.90;;;;;;12421396;28;20061;-37
2023/06/17 08:23:52;;;;;;;9.00;6.73;;;19.30;99.90;;;;;;12400287;28;20045;-37
2023/06/17 08:29:54;;;;;;;12.80;7.40;;;19.50;99.90;;;;;;12419353;28;20423;-37
2023/06/17 08:35:56;;;;;;;9.52;6.68;;;19.60;99.90;;;;;;12419393;28;20057;-37
2023/06/17 08:41:59;;;;;;;15.98;6.82;;;19.90;99.90;;;;;;12428627;28;20053;-36
2023/06/17 08:48:01;;;;;;;11.60;7.65;;;20.00;99.90;;;;;;12411181;28;20086;-37
2023/06/17 08:54:03;;;;;;;8.48;6.60;;;20.20;99.90;;;;;;12417291;28;20093;-37
2023/06/17 09:00:08;;;;;;;12.73;8.35;;;20.10;99.90;;;;;;12401434;28;20138;-37
2023/06/17 09:06:20;;;;;;;13.40;7.00;;;20.20;99.90;;;;;;12375665;28;20042;-37
2023/06/17 09:12:26;;;;;;;9.38;6.70;;;20.40;99.90;;;;;;12392212;28;20054;-36
2023/06/17 09:18:32;;;;;;;12.65;7.40;;;20.50;99.90;;;;;;12407314;28;20042;-37
2023/06/17 09:24:40;;;;;;;10.38;6.05;;;20.70;99.90;;;;;;12408827;28;20046;-37
2023/06/17 09:30:43;;;;;;;10.52;6.15;;;21.30;99.90;;;;;;12413141;28;20050;-37
2023/06/17 09:36:46;;;;;;;10.38;7.20;;;21.10;99.90;;;;;;12407397;28;20047;-37
2023/06/17 09:42:50;;;;;;;10.67;6.40;;;21.30;99.90;;;;;;12409086;28;20085;-37
2023/06/17 09:48:52;;;;;;;12.10;7.85;;;21.70;99.90;;;;;;12403576;28;20058;-37
2023/06/17 09:54:54;;;;;;;10.27;6.50;;;21.60;99.90;;;;;;12406655;28;20078;-37
2023/06/17 10:00:57;;;;;;;11.18;7.70;;;22.10;99.90;;;;;;12372739;28;20483;-37
2023/06/17 10:07:00;;;;;;;12.15;7.15;;;22.80;99.90;;;;;;12402378;28;20682;-36
2023/06/17 10:13:05;;;;;;;11.93;6.40;;;23.00;99.90;;;;;;12404427;28;20499;-37
2023/06/17 10:19:10;;;;;;;9.82;7.88;;;23.20;99.90;;;;;;12408661;28;20554;-37
2023/06/17 10:25:14;;;;;;;10.95;8.05;;;23.30;99.90;;;;;;12422788;28;20104;-36
2023/06/17 10:31:26;;;;;;;11.68;7.55;;;23.50;99.90;;;;;;12383720;28;20938;-37
2023/06/17 10:37:29;;;;;;;10.77;8.02;;;23.70;99.90;;;;;;12410496;28;20076;-36
2023/06/17 10:43:38;;;;;;;12.45;9.02;;;23.40;99.90;;;;;;12405058;28;20045;-36
2023/06/17 10:49:41;;;;;;;18.60;11.80;;;23.70;99.90;;;;;;12403219;28;20045;-36
2023/06/17 10:55:45;;;;;;;18.70;12.57;;;23.70;99.90;;;;;;12398450;28;20507;-37
2023/06/17 11:01:47;;;;;;;15.52;10.65;;;24.00;99.90;;;;;;12410513;28;20663;-38
2023/06/17 11:07:50;;;;;;;18.63;11.98;;;24.20;99.90;;;;;;12395946;28;20179;-37
2023/06/17 11:13:53;;;;;;;17.38;10.90;;;23.70;99.90;;;;;;12397459;28;20442;-37
2023/06/17 11:19:55;;;;;;;17.60;11.93;;;24.20;99.90;;;;;;12423489;28;20600;-37
2023/06/17 11:25:57;;;;;;;17.52;12.07;;;24.00;99.90;;;;;;12411874;28;20061;-38
2023/06/17 11:32:00;;;;;;;10.57;8.17;;;24.50;99.90;;;;;;12391829;28;20514;-36
2023/06/17 11:38:04;;;;;;;18.88;12.55;;;24.30;99.90;;;;;;12414467;28;20406;-37
2023/06/17 11:44:06;;;;;;;17.42;12.05;;;24.50;99.90;;;;;;12414508;28;20054;-37
2023/06/17 11:50:09;;;;;;;20.40;12.97;;;24.60;99.90;;;;;;12415334;28;20045;-37
2023/06/17 11:56:13;;;;;;;17.67;11.27;;;24.50;99.90;;;;;;12401473;28;20049;-36
2023/06/17 12:02:16;;;;;;;20.33;13.00;;;24.60;99.90;;;;;;12418770;28;20046;-37
2023/06/17 12:08:18;;;;;;;18.98;12.75;;;24.70;99.90;;;;;;12414150;28;20050;-36
2023/06/17 12:14:20;;;;;;;16.90;11.97;;;24.80;99.90;;;;;;12418344;28;20054;-37
2023/06/17 12:20:22;;;;;;;20.45;13.25;;;25.00;99.90;;;;;;12423722;28;20077;-37
2023/06/17 12:26:26;;;;;;;16.55;12.60;;;25.00;99.90;;;;;;12426068;28;20511;-36
2023/06/17 12:32:28;;;;;;;16.10;11.95;;;25.10;99.90;;;;;;12419172;28;20053;-38
2023/06/17 12:38:34;;;;;;;17.47;12.03;;;25.10;99.90;;;;;;12401557;28;20133;-36
2023/06/17 12:44:36;;;;;;;14.90;10.73;;;25.00;99.90;;;;;;12411681;28;20050;-36
2023/06/17 12:50:39;;;;;;;;;;;24.60;99.90;;;;;;12402710;28;20049;-36
2023/06/17 12:56:42;;;;;;;13.98;10.13;;;24.80;99.90;;;;;;12409645;28;19925;-37
2023/06/17 13:02:44;;;;;;;14.40;8.65;;;24.90;99.90;;;;;;12409828;28;20046;-36
2023/06/17 13:08:46;;;;;;;11.23;8.68;;;24.90;99.90;;;;;;12412350;28;20053;-36
2023/06/17 13:14:49;;;;;;;12.43;7.57;;;24.80;99.90;;;;;;12391217;28;20066;-37
2023/06/17 13:20:51;;;;;;;14.93;8.00;;;25.00;99.90;;;;;;12400980;28;20042;-37
2023/06/17 13:26:54;;;;;;;10.98;6.47;;;25.00;99.90;;;;;;12420651;28;20391;-36
2023/06/17 13:32:57;;;;;;;7.72;5.30;;;25.10;99.90;;;;;;12409076;28;20442;-36
2023/06/17 13:38:59;;;;;;;6.13;4.63;;;25.10;99.90;;;;;;12412016;28;20145;-36
2023/06/17 13:45:01;;;;;;;10.15;5.47;;;25.10;99.90;;;;;;12413420;28;20041;-38
2023/06/17 13:51:03;;;;;;;7.63;5.23;;;25.20;99.90;;;;;;12415778;28;20097;-37
2023/06/17 13:57:06;;;;;;;9.27;6.07;;;25.10;99.90;;;;;;12408947;28;20050;-36
2023/06/17 14:03:08;;;;;;;7.10;4.82;;;25.20;99.90;;;;;;12407730;28;20469;-36
2023/06/17 14:09:14;;;;;;;13.88;6.00;;;25.40;99.90;;;;;;12412784;28;20050;-36
2023/06/17 14:15:16;;;;;;;12.83;6.43;;;25.30;99.90;;;;;;12406332;28;20104;-37
2023/06/17 14:21:26;;;;;;;8.63;5.77;;;25.20;99.90;;;;;;12390328;28;20042;-38
2023/06/17 14:27:43;;;;;;;10.00;6.18;;;25.30;99.90;;;;;;12396642;28;20054;-37
2023/06/17 14:33:45;;;;;;;8.57;5.30;;;25.20;99.90;;;;;;12403077;28;20062;-37
2023/06/17 14:39:47;;;;;;;8.15;5.30;;;25.20;99.90;;;;;;12411126;28;20058;-36
2023/06/17 14:45:50;;;;;;;7.45;5.82;;;25.30;99.90;;;;;;12397236;28;20054;-37
2023/06/17 14:51:52;;;;;;;8.80;6.20;;;25.40;99.90;;;;;;12414089;28;20410;-38
2023/06/17 14:57:53;;;;;;;6.20;5.13;;;25.40;99.90;;;;;;12413444;28;20050;-37
2023/06/17 15:03:57;;;;;;;6.95;5.70;;;25.30;99.90;;;;;;12407665;28;20048;-37
2023/06/17 15:09:58;;;;;;;8.82;5.90;;;25.40;99.90;;;;;;12420132;28;20054;-37
2023/06/17 15:16:01;;;;;;;8.85;5.55;;;25.40;99.90;;;;;;12416963;28;21838;-36
2023/06/17 15:22:03;;;;;;;6.73;5.20;;;25.50;99.90;;;;;;12434554;28;20041;-36
2023/06/17 15:28:06;;;;;;;9.33;5.47;;;25.30;99.90;;;;;;12404649;28;20077;-36
2023/06/17 15:34:08;;;;;;;11.90;5.18;;;25.10;99.90;;;;;;12419746;28;20046;-37
2023/06/17 15:40:11;;;;;;;8.77;5.72;;;25.10;99.90;;;;;;12403619;28;20522;-36
2023/06/17 15:46:13;;;;;;;7.25;5.03;;;25.40;99.90;;;;;;12418951;28;20068;-37
2023/06/17 15:52:15;;;;;;;8.07;5.38;;;25.70;99.90;;;;;;12394128;28;20081;-36
2023/06/17 15:58:17;;;;;;;7.97;4.77;;;25.90;99.90;;;;;;12406112;28;20532;-36
2023/06/17 16:04:48;;;;;;;7.45;5.70;;;26.00;99.90;;;;;;12416805;28;20052;-36
2023/06/17 16:10:51;;;;;;;5.88;4.18;;;26.00;99.90;;;;;;12391827;28;20057;-36
2023/06/17 16:16:52;;;;;;;8.18;5.10;;;26.10;99.90;;;;;;12426977;28;20483;-36
2023/06/17 16:22:55;;;;;;;6.40;4.68;;;26.00;99.90;;;;;;12389786;28;20406;-36
2023/06/17 16:28:57;;;;;;;8.60;5.27;;;25.80;99.90;;;;;;12404521;28;20068;-36
2023/06/17 16:34:59;;;;;;;4.97;4.47;;;26.10;99.90;;;;;;12423447;28;20293;-36
2023/06/17 16:41:02;;;;;;;7.70;5.33;;;26.30;99.90;;;;;;12408901;28;20054;-36
2023/06/17 16:47:05;;;;;;;7.70;4.93;;;26.20;99.90;;;;;;12417393;28;20061;-35
2023/06/17 16:53:07;;;;;;;8.90;5.18;;;26.30;99.90;;;;;;12420912;28;20407;-36
2023/06/17 16:59:10;;;;;;;6.03;4.40;;;26.40;99.90;;;;;;12416631;28;20108;-36
2023/06/17 17:05:12;;;;;;;7.25;4.30;;;26.50;99.90;;;;;;12417362;28;20046;-37
2023/06/17 17:11:15;;;;;;;8.23;4.30;;;26.70;99.90;;;;;;12387763;28;20406;-36
2023/06/17 17:17:16;;;;;;;6.50;4.80;;;26.80;99.90;;;;;;12401720;28;20154;-36
2023/06/17 17:23:18;;;;;;;6.43;4.70;;;26.60;99.90;;;;;;12414994;28;20077;-36
2023/06/17 17:29:21;;;;;;;8.30;4.80;;;26.80;99.90;;;;;;12405080;28;20084;-36
2023/06/17 17:35:23;;;;;;;6.50;4.38;;;26.90;99.90;;;;;;12395799;28;20065;-37
2023/06/17 17:41:27;;;;;;;5.77;4.30;;;27.00;99.90;;;;;;12399918;28;20458;-36
2023/06/17 17:47:30;;;;;;;6.22;4.38;;;26.90;99.90;;;;;;12408217;28;20061;-36
2023/06/17 17:53:32;;;;;;;6.87;4.90;;;27.10;99.90;;;;;;12414199;28;20042;-36
2023/06/17 17:59:33;;;;;;;9.03;4.87;;;27.10;99.90;;;;;;12394349;28;20314;-36
2023/06/17 18:05:35;;;;;;;6.73;5.33;;;26.90;99.90;;;;;;12387208;28;20084;-36
2023/06/17 18:11:38;;;;;;;8.40;5.53;;;27.30;99.90;;;;;;12390414;28;20050;-36
2023/06/17 18:17:40;;;;;;;7.22;5.22;;;26.90;99.90;;;;;;12399595;28;20471;-36
2023/06/17 18:23:42;;;;;;;8.60;6.27;;;26.30;99.90;;;;;;12409959;28;20512;-36
2023/06/17 18:29:44;;;;;;;8.17;6.00;;;25.20;99.90;;;;;;12408184;28;20061;-36
2023/06/17 18:35:46;;;;;;;9.15;6.10;;;24.50;99.90;;;;;;12430753;28;20462;-36
2023/06/17 18:41:48;;;;;;;9.88;7.03;;;23.80;99.90;;;;;;12407220;28;20093;-35
2023/06/17 18:47:50;;;;;;;9.47;6.43;;;23.80;99.90;;;;;;12418287;28;20445;-36
2023/06/17 18:53:52;;;;;;;11.93;6.60;;;23.60;99.90;;;;;;12415784;28;20052;-37
2023/06/17 18:59:56;;;;;;;;;;;23.40;99.90;;;;;;12399851;28;20104;-36
2023/06/17 19:05:58;;;;;;;11.30;6.80;;;23.40;99.90;;;;;;12401744;28;20005;-35
2023/06/17 19:12:00;;;;;;;11.50;6.57;;;23.40;99.90;;;;;;12411134;28;20046;-38
2023/06/17 19:18:02;;;;;;;9.80;6.45;;;23.50;99.90;;;;;;12406096;28;20089;-36
2023/06/17 19:24:04;;;;;;;11.60;6.70;;;23.20;99.90;;;;;;12401497;28;20053;-36
2023/06/17 19:30:07;;;;;;;13.43;6.53;;;23.20;99.90;;;;;;12419920;28;20664;-35
2023/06/17 19:36:09;;;;;;;8.52;6.95;;;22.90;99.90;;;;;;12398230;28;20072;-36
2023/06/17 19:42:11;;;;;;;9.07;6.20;;;22.50;99.90;;;;;;12407491;28;20469;-36
2023/06/17 19:48:13;;;;;;;13.38;7.15;;;22.30;99.90;;;;;;12402256;28;20053;-36
2023/06/17 19:54:15;;;;;;;10.63;6.90;;;22.30;99.90;;;;;;12423740;28;20050;-36
2023/06/17 20:00:17;;;;;;;10.43;7.05;;;22.20;99.90;;;;;;12410806;28;20046;-35
2023/06/17 20:06:20;;;;;;;10.67;7.00;;;22.00;99.90;;;;;;12426251;28;20053;-36
2023/06/17 20:12:22;;;;;;;14.25;8.07;;;21.80;99.90;;;;;;12391419;28;20498;-36
2023/06/17 20:18:24;;;;;;;9.38;7.70;;;21.50;99.90;;;;;;12422406;28;20494;-36
2023/06/17 20:24:26;;;;;;;10.70;7.57;;;21.40;99.90;;;;;;12427470;28;20045;-35
2023/06/17 20:30:28;;;;;;;10.98;7.35;;;21.40;99.90;;;;;;12423211;28;20058;-35
2023/06/17 20:36:30;;;;;;;10.98;7.15;;;21.30;99.90;;;;;;12402009;28;20058;-36
2023/06/17 20:42:32;;;;;;;9.60;7.65;;;21.10;99.90;;;;;;12415719;28;20038;-36
2023/06/17 20:48:34;;;;;;;9.25;7.82;;;20.90;99.90;;;;;;12400924;28;20049;-36
2023/06/17 20:54:36;;;;;;;12.70;7.65;;;20.80;99.90;;;;;;12413417;28;20469;-36
2023/06/17 21:00:37;;;;;;;8.43;7.03;;;20.60;99.90;;;;;;12386877;28;20084;-36
2023/06/17 21:06:40;;;;;;;9.40;7.15;;;20.60;99.90;;;;;;12400082;28;20069;-36
2023/06/17 21:12:42;;;;;;;10.93;8.07;;;20.60;99.90;;;;;;12384819;28;20077;-36
2023/06/17 21:18:44;;;;;;;10.38;7.10;;;20.70;99.90;;;;;;12424269;28;20081;-36
2023/06/17 21:24:46;;;;;;;13.45;8.27;;;20.50;99.90;;;;;;12400947;28;20042;-36
2023/06/17 21:30:48;;;;;;;10.98;7.57;;;20.40;99.90;;;;;;12388237;28;20058;-36
2023/06/17 21:36:50;;;;;;;13.27;8.05;;;20.50;99.90;;;;;;12402091;28;20053;-36
2023/06/17 21:42:52;;;;;;;11.38;7.80;;;20.50;99.90;;;;;;12397775;28;20054;-36
2023/06/17 21:48:56;;;;;;;9.45;7.95;;;20.50;99.90;;;;;;12405320;28;20056;-36
2023/06/17 21:54:57;;;;;;;;;;;20.40;99.90;;;;;;12410518;28;20050;-35
2023/06/17 22:01:00;;;;;;;11.57;7.78;;;20.30;99.90;;;;;;12385806;28;19921;-36
2023/06/17 22:07:03;;;;;;;8.88;7.40;;;20.20;99.90;;;;;;12421581;28;20058;-36
2023/06/17 22:13:05;;;;;;;13.13;10.52;;;20.10;99.90;;;;;;12407311;28;20046;-35
2023/06/17 22:19:08;;;;;;;10.25;8.50;;;19.70;99.90;;;;;;12416664;28;20196;-35
2023/06/17 22:25:10;;;;;;;11.63;8.50;;;19.70;99.90;;;;;;12397901;28;20128;-35
2023/06/17 22:31:12;;;;;;;10.32;8.48;;;19.70;99.90;;;;;;12392241;28;20062;-37
2023/06/17 22:37:14;;;;;;;14.10;10.15;;;19.50;99.90;;;;;;12414002;28;20050;-35
2023/06/17 22:43:16;;;;;;;11.00;8.63;;;19.40;99.90;;;;;;12404776;28;20507;-36
2023/06/17 22:49:18;;;;;;;9.25;8.07;;;19.50;99.90;;;;;;12408588;28;20144;-35
2023/06/17 22:55:21;;;;;;;16.40;10.20;;;19.50;99.90;;;;;;12404490;28;20153;-35
2023/06/17 23:01:23;;;;;;;13.25;9.95;;;19.40;99.90;;;;;;12406444;28;20054;-35
2023/06/17 23:07:25;;;;;;;12.88;9.88;;;19.20;99.90;;;;;;12392970;28;20532;-35
2023/06/17 23:13:27;;;;;;;13.93;10.50;;;19.30;99.90;;;;;;12418452;28;20038;-35
2023/06/17 23:19:29;;;;;;;13.20;10.18;;;19.10;99.90;;;;;;12416220;28;20129;-35
2023/06/17 23:25:31;;;;;;;16.40;10.93;;;18.90;99.90;;;;;;12415035;28;20042;-35
2023/06/17 23:31:35;;;;;;;11.48;8.93;;;18.80;99.90;;;;;;12408358;28;20414;-36
2023/06/17 23:37:37;;;;;;;19.33;10.90;;;18.80;99.90;;;;;;12408661;28;20049;-35
2023/06/17 23:43:39;;;;;;;10.68;9.57;;;18.80;99.90;;;;;;12403681;28;20621;-35
2023/06/17 23:49:41;;;;;;;11.68;10.07;;;18.70;99.90;;;;;;12401285;28;20176;-35
2023/06/17 23:55:44;;;;;;;15.02;10.02;;;18.70;99.90;;;;;;12392155;28;20532;-35
